This is the latest recevied weather packets stored in our database for station/object YO8SSH-13. If no packets are shown the sender has not sent any weather packets the latest 1 day(s).
| Time | Temp. | Humidity | Pressure | Rain* | Wind** | Luminosity | Snow |
|---|---|---|---|---|---|---|---|
| 1778078126 | 28.33° C | 23% | 1009 hPa | 0 mm | - | - | - |
| 1778075426 | 28.89° C | 23% | 1009 hPa | 0 mm | - | - | - |
| 1778072727 | 30° C | 22% | 1009 hPa | 0 mm | - | - | - |
| 1778071829 | 30° C | 22% | 1009 hPa | 0 mm | - | - | - |
| 1778070027 | 30° C | 22% | 1009 hPa | 0 mm | - | - | - |
| 1778068226 | 30° C | 23% | 1009 hPa | 0 mm | - | - | - |
| 1778064626 | 29.44° C | 23% | 1010 hPa | 0 mm | - | - | - |
| 1778063726 | 29.44° C | 23% | 1010 hPa | 0 mm | - | - | - |
| 1778062826 | 28.89° C | 22% | 1010 hPa | 0 mm | - | - | - |
| 1778061927 | 28.89° C | 23% | 1010 hPa | 0 mm | - | - | - |
| 1778061027 | 28.33° C | 23% | 1010 hPa | 0 mm | - | - | - |
| 1778058327 | 27.78° C | 26% | 1010 hPa | 0 mm | - | - | - |
| 1778057437 | 27.78° C | 27% | 1010 hPa | 0 mm | - | - | - |
| 1778056527 | 27.22° C | 29% | 1011 hPa | 0 mm | - | - | - |
| 1778054726 | 26.11° C | 32% | 1011 hPa | 0 mm | - | - | - |
| 1778052926 | 24.44° C | 38% | 1011 hPa | 0 mm | - | - | - |
| 1778051127 | 23.33° C | 40% | 1010 hPa | 0 mm | - | - | - |
| 1778050226 | 23.33° C | 41% | 1010 hPa | 0 mm | - | - | - |
| 1778047526 | 20° C | 47% | 1010 hPa | 0 mm | - | - | - |
| 1778046627 | 18.89° C | 49% | 1011 hPa | 0 mm | - | - | - |
| 1778045726 | 17.78° C | 54% | 1011 hPa | 0 mm | - | - | - |
| 1778044827 | 16.11° C | 56% | 1011 hPa | 0 mm | - | - | - |
| 1778043926 | 14.44° C | 60% | 1011 hPa | 0 mm | - | - | - |
| 1778043027 | 12.22° C | 61% | 1010 hPa | 0 mm | - | - | - |
| 1778042126 | 11.67° C | 60% | 1010 hPa | 0 mm | - | - | - |
* Rain latest hour (hover to see other rain measurements)
** Current wind speed in m/s (hover to see current wind gust speed)